createdAt,value
2022-10-28T00:01:06.435Z,3.85
2022-10-28T00:03:34.979Z,3.85
2022-10-28T00:06:04.070Z,3.97
2022-10-28T00:08:31.787Z,4.57
2022-10-28T00:11:06.947Z,4.63
2022-10-28T00:13:35.189Z,4.78
2022-10-28T00:16:12.735Z,4.55
2022-10-28T00:18:41.672Z,5.45
2022-10-28T00:21:12.611Z,4.97
2022-10-28T00:23:40.703Z,5.20
2022-10-28T00:26:11.603Z,4.35
2022-10-28T00:28:41.642Z,4.95
2022-10-28T00:31:11.865Z,5.22
2022-10-28T00:33:40.134Z,4.75
2022-10-28T00:36:13.636Z,4.63
2022-10-28T00:38:42.323Z,4.97
2022-10-28T00:41:12.821Z,5.30
2022-10-28T00:43:42.737Z,4.68
2022-10-28T00:46:19.593Z,5.00
2022-10-28T00:48:51.329Z,5.90
2022-10-28T00:51:21.980Z,4.97
2022-10-28T00:53:52.409Z,4.95
2022-10-28T00:56:23.020Z,5.10
2022-10-28T00:58:51.511Z,4.50
2022-10-28T01:01:19.508Z,4.57
2022-10-28T01:03:48.314Z,4.97
2022-10-28T01:06:16.308Z,5.13
2022-10-28T01:08:44.315Z,4.95
2022-10-28T01:11:35.627Z,4.65
2022-10-28T01:14:20.405Z,4.88
2022-10-28T01:17:13.401Z,4.70
2022-10-28T01:20:19.516Z,4.55
2022-10-28T01:22:54.326Z,4.90
2022-10-28T01:25:44.157Z,5.15
2022-10-28T01:28:51.313Z,4.43
2022-10-28T01:31:30.785Z,3.83
2022-10-28T01:34:08.828Z,5.30
2022-10-28T01:36:41.391Z,4.50
2022-10-28T01:39:19.191Z,4.47
2022-10-28T01:41:52.697Z,4.20
2022-10-28T01:44:27.206Z,4.68
2022-10-28T01:47:02.654Z,5.10
2022-10-28T01:49:39.458Z,5.13
2022-10-28T01:52:12.481Z,5.13
2022-10-28T01:54:42.922Z,5.47
2022-10-28T01:57:12.991Z,5.80
2022-10-28T01:59:41.988Z,4.90
2022-10-28T02:02:10.960Z,4.80
2022-10-28T02:04:38.623Z,4.70
2022-10-28T02:07:06.662Z,4.75
2022-10-28T02:09:46.982Z,4.35
2022-10-28T02:12:26.054Z,4.50
2022-10-28T02:15:16.655Z,4.30
2022-10-28T02:18:02.335Z,5.28
2022-10-28T02:20:38.252Z,4.43
2022-10-28T02:23:17.561Z,4.63
2022-10-28T02:25:51.934Z,4.60
2022-10-28T02:28:24.649Z,4.80
2022-10-28T02:30:58.027Z,4.72
2022-10-28T02:33:32.088Z,5.20
2022-10-28T02:36:03.639Z,4.60
2022-10-28T02:38:35.947Z,4.72
2022-10-28T02:41:08.026Z,4.63
2022-10-28T02:43:39.270Z,4.90
2022-10-28T02:46:08.828Z,5.20
2022-10-28T02:48:41.260Z,4.70
2022-10-28T02:51:12.017Z,4.93
2022-10-28T02:53:51.531Z,4.90
2022-10-28T02:56:21.280Z,5.43
2022-10-28T02:58:49.562Z,4.78
2022-10-28T03:01:17.468Z,4.90
2022-10-28T03:03:46.759Z,4.88
2022-10-28T03:06:14.982Z,4.80
2022-10-28T03:08:42.654Z,5.50
2022-10-28T03:11:10.303Z,6.00
2022-10-28T03:13:37.845Z,5.93
2022-10-28T03:16:05.934Z,5.68
2022-10-28T03:18:33.502Z,5.18
2022-10-28T03:21:02.659Z,6.05
2022-10-28T03:23:30.321Z,4.90
2022-10-28T03:25:57.922Z,4.50
2022-10-28T03:28:25.748Z,4.75
2022-10-28T03:30:53.451Z,4.28
2022-10-28T03:33:21.015Z,4.65
2022-10-28T03:35:48.684Z,3.83
2022-10-28T03:38:20.327Z,3.90
2022-10-28T03:40:51.027Z,3.88
2022-10-28T03:43:20.467Z,4.28
2022-10-28T03:45:48.655Z,3.90
2022-10-28T03:48:16.485Z,3.47
2022-10-28T03:50:44.178Z,3.88
2022-10-28T03:53:11.905Z,3.85
2022-10-28T03:55:41.134Z,3.90
2022-10-28T03:58:08.782Z,3.70
2022-10-28T04:00:36.431Z,4.13
2022-10-28T04:03:04.381Z,3.47
2022-10-28T04:05:32.079Z,3.97
2022-10-28T04:07:59.726Z,3.28
2022-10-28T04:10:27.303Z,4.10
2022-10-28T04:13:03.128Z,3.63
2022-10-28T04:15:31.144Z,3.60
2022-10-28T04:17:58.896Z,4.35
2022-10-28T04:20:27.662Z,3.92
2022-10-28T04:22:57.182Z,4.03
2022-10-28T04:25:26.762Z,4.85
2022-10-28T04:27:56.462Z,3.97
2022-10-28T04:30:26.138Z,4.10
2022-10-28T04:32:53.888Z,3.95
2022-10-28T04:35:22.878Z,3.80
2022-10-28T04:37:50.765Z,4.40
2022-10-28T04:40:18.887Z,4.75
2022-10-28T04:42:46.513Z,4.47
2022-10-28T04:45:16.292Z,4.18
2022-10-28T04:47:44.098Z,4.18
2022-10-28T04:50:11.855Z,4.13
2022-10-28T04:52:39.693Z,5.45
2022-10-28T04:55:08.054Z,4.47
2022-10-28T04:57:35.671Z,4.55
2022-10-28T05:00:03.729Z,4.00
2022-10-28T05:02:33.113Z,4.00
2022-10-28T05:05:04.806Z,4.38
2022-10-28T05:07:32.549Z,5.20
2022-10-28T05:10:00.302Z,4.75
2022-10-28T05:12:28.104Z,4.20
2022-10-28T05:14:55.817Z,4.90
2022-10-28T05:17:23.569Z,4.82
2022-10-28T05:19:52.776Z,4.50
2022-10-28T05:22:20.380Z,4.57
2022-10-28T05:24:48.018Z,4.35
2022-10-28T05:27:16.983Z,3.95
2022-10-28T05:29:44.749Z,3.92
2022-10-28T05:32:12.453Z,4.35
2022-10-28T05:34:40.141Z,4.30
2022-10-28T05:37:09.353Z,3.72
2022-10-28T05:39:39.453Z,3.97
2022-10-28T05:42:08.202Z,4.70
2022-10-28T05:44:36.318Z,4.07
2022-10-28T05:47:04.020Z,3.92
2022-10-28T05:49:33.004Z,4.15
2022-10-28T05:52:01.009Z,4.32
2022-10-28T05:54:33.211Z,4.10
2022-10-28T05:57:06.892Z,5.18
2022-10-28T05:59:34.607Z,4.35
2022-10-28T06:02:02.426Z,4.53
2022-10-28T06:04:31.064Z,4.13
2022-10-28T06:06:58.953Z,4.10
2022-10-28T06:09:28.311Z,4.55
2022-10-28T06:11:55.809Z,5.20
2022-10-28T06:14:23.462Z,5.53
2022-10-28T06:16:51.141Z,5.28
2022-10-28T06:19:18.712Z,5.65
2022-10-28T06:21:47.373Z,5.38
2022-10-28T06:24:15.194Z,5.10
2022-10-28T06:26:42.958Z,5.45
2022-10-28T06:29:12.155Z,5.47
2022-10-28T06:31:40.240Z,4.93
2022-10-28T06:34:13.147Z,5.43
2022-10-28T06:36:40.870Z,5.63
2022-10-28T06:39:08.850Z,5.78
2022-10-28T06:41:36.488Z,5.35
2022-10-28T06:44:04.537Z,5.18
2022-10-28T06:46:35.130Z,5.38
2022-10-28T06:49:03.155Z,5.53
2022-10-28T06:51:31.598Z,6.47
2022-10-28T06:53:59.628Z,5.70
2022-10-28T06:56:27.326Z,5.82
2022-10-28T06:58:55.807Z,6.32
2022-10-28T07:01:23.548Z,5.78
2022-10-28T07:03:52.714Z,5.22
2022-10-28T07:06:20.769Z,4.78
2022-10-28T07:08:48.450Z,5.85
2022-10-28T07:11:16.120Z,6.43
2022-10-28T07:13:45.421Z,5.07
2022-10-28T07:16:15.841Z,5.53
2022-10-28T07:18:43.725Z,5.45
2022-10-28T07:21:14.089Z,5.15
2022-10-28T07:23:41.659Z,5.05
2022-10-28T07:26:09.499Z,5.68
2022-10-28T07:28:37.028Z,5.53
2022-10-28T07:31:05.012Z,4.93
2022-10-28T07:33:32.823Z,4.90
2022-10-28T07:36:00.519Z,5.47
2022-10-28T07:38:29.503Z,6.03
2022-10-28T07:40:57.283Z,4.80
2022-10-28T07:43:25.290Z,5.07
2022-10-28T07:45:56.993Z,5.55
2022-10-28T07:48:24.668Z,5.78
2022-10-28T07:50:52.201Z,5.63
2022-10-28T07:53:20.994Z,6.07
2022-10-28T07:55:57.278Z,4.97
2022-10-28T07:58:24.927Z,5.22
2022-10-28T08:00:53.056Z,4.93
2022-10-28T08:03:21.185Z,5.90
2022-10-28T08:05:48.835Z,5.43
2022-10-28T08:08:16.577Z,5.75
2022-10-28T08:10:44.271Z,14.20
2022-10-28T08:13:13.264Z,10.82
2022-10-28T08:15:40.791Z,8.02
2022-10-28T08:18:08.391Z,6.28
2022-10-28T08:20:35.972Z,6.28
2022-10-28T08:23:05.369Z,5.30
2022-10-28T08:25:37.764Z,5.60
2022-10-28T08:28:05.546Z,5.88
2022-10-28T08:30:50.296Z,5.53
2022-10-28T08:33:23.259Z,6.07
2022-10-28T08:35:51.621Z,5.25
2022-10-28T08:38:19.592Z,5.30
2022-10-28T08:40:59.403Z,5.50
2022-10-28T08:43:56.100Z,5.50
2022-10-28T08:46:35.864Z,5.70
2022-10-28T08:49:04.953Z,6.30
2022-10-28T08:51:38.156Z,5.38
2022-10-28T08:54:12.823Z,4.90
2022-10-28T08:56:45.927Z,5.43
2022-10-28T08:59:18.506Z,5.70
2022-10-28T09:01:50.830Z,5.90
2022-10-28T09:04:27.445Z,5.53
2022-10-28T09:06:55.133Z,6.05
2022-10-28T09:09:24.175Z,5.47
2022-10-28T09:12:10.840Z,5.75
2022-10-28T09:14:50.514Z,5.40
2022-10-28T09:17:21.303Z,4.88
2022-10-28T09:19:51.643Z,5.05
2022-10-28T09:22:25.918Z,5.35
2022-10-28T09:24:56.757Z,5.15
2022-10-28T09:27:42.465Z,5.00
2022-10-28T09:30:27.279Z,4.85
2022-10-28T09:33:07.619Z,5.38
2022-10-28T09:35:40.958Z,6.03
2022-10-28T09:38:16.069Z,5.90
2022-10-28T09:40:51.015Z,5.88
2022-10-28T09:43:25.776Z,4.93
2022-10-28T09:45:58.737Z,4.72
2022-10-28T09:48:32.427Z,18.10
2022-10-28T09:51:00.811Z,8.27
2022-10-28T09:53:37.596Z,10.85
2022-10-28T09:56:06.381Z,9.02
2022-10-28T09:58:34.899Z,5.00
2022-10-28T10:01:03.546Z,5.13
2022-10-28T10:03:32.948Z,8.30
2022-10-28T10:06:07.661Z,6.43
2022-10-28T10:08:37.431Z,4.30
2022-10-28T10:11:08.070Z,7.22
2022-10-28T10:13:39.014Z,3.88
2022-10-28T10:16:15.903Z,7.43
2022-10-28T10:18:50.567Z,5.65
2022-10-28T10:21:21.163Z,4.30
2022-10-28T10:23:48.810Z,4.07
2022-10-28T10:26:18.151Z,3.40
2022-10-28T10:28:48.318Z,6.00
2022-10-28T10:31:21.624Z,16.73
2022-10-28T10:33:53.589Z,5.97
2022-10-28T10:36:23.564Z,4.13
2022-10-28T10:38:54.278Z,6.88
2022-10-28T10:41:43.920Z,3.63
2022-10-28T10:44:33.463Z,3.42
2022-10-28T10:47:31.377Z,4.88
2022-10-28T10:50:28.328Z,7.97
2022-10-28T10:52:58.406Z,3.55
2022-10-28T10:55:34.551Z,4.40
2022-10-28T10:58:03.122Z,4.85
2022-10-28T11:00:36.498Z,4.45
2022-10-28T11:03:06.751Z,5.70
2022-10-28T11:05:38.359Z,3.42
2022-10-28T11:08:07.705Z,6.18
2022-10-28T11:10:36.134Z,3.92
2022-10-28T11:13:06.335Z,7.65
2022-10-28T11:15:34.291Z,9.25
2022-10-28T11:18:04.323Z,9.40
2022-10-28T11:20:44.022Z,5.40
2022-10-28T11:23:35.521Z,4.68
2022-10-28T11:26:06.913Z,5.90
2022-10-28T11:28:54.713Z,6.63
2022-10-28T11:31:47.824Z,4.38
2022-10-28T11:34:37.159Z,3.15
2022-10-28T11:37:15.584Z,4.00
2022-10-28T11:39:55.671Z,5.55
2022-10-28T11:42:32.957Z,4.30
2022-10-28T11:45:07.108Z,3.03
2022-10-28T11:47:50.142Z,3.17
2022-10-28T11:50:33.150Z,3.00
2022-10-28T11:53:32.202Z,3.90
2022-10-28T11:56:08.619Z,4.13
2022-10-28T11:58:45.621Z,4.00
2022-10-28T12:01:30.577Z,2.95
2022-10-28T12:04:13.282Z,3.65
2022-10-28T12:07:02.532Z,3.42
2022-10-28T12:09:41.827Z,3.97
2022-10-28T12:12:18.964Z,4.70
2022-10-28T12:14:54.658Z,3.78
2022-10-28T12:17:29.068Z,3.50
2022-10-28T12:20:00.180Z,3.13
2022-10-28T12:22:31.236Z,2.78
2022-10-28T12:25:04.253Z,3.53
2022-10-28T12:27:35.854Z,3.55
2022-10-28T12:30:15.180Z,3.30
2022-10-28T12:32:45.326Z,3.75
2022-10-28T12:35:18.783Z,3.38
2022-10-28T12:37:50.666Z,3.13
2022-10-28T12:40:22.970Z,3.35
2022-10-28T12:42:56.121Z,3.15
2022-10-28T12:45:27.425Z,3.17
2022-10-28T12:48:00.905Z,2.67
2022-10-28T12:50:33.286Z,2.88
2022-10-28T12:53:20.035Z,3.40
2022-10-28T12:55:56.646Z,3.47
2022-10-28T12:58:30.731Z,3.67
2022-10-28T13:01:10.588Z,3.38
2022-10-28T13:03:38.652Z,3.80
2022-10-28T13:06:26.059Z,4.95
2022-10-28T13:09:25.454Z,3.97
2022-10-28T13:12:10.269Z,3.05
2022-10-28T13:17:57.132Z,3.35
2022-10-28T13:20:38.801Z,3.63
2022-10-28T13:23:16.105Z,3.92
2022-10-28T13:26:13.256Z,3.30
2022-10-28T13:28:47.167Z,2.85
2022-10-28T13:31:15.738Z,3.13
2022-10-28T13:33:53.954Z,3.15
2022-10-28T13:36:27.023Z,3.30
2022-10-28T13:38:58.404Z,3.92
2022-10-28T13:41:35.354Z,3.65
2022-10-28T13:44:24.547Z,5.90
2022-10-28T13:47:29.159Z,3.72
2022-10-28T13:50:31.459Z,5.03
2022-10-28T13:53:44.511Z,4.00
2022-10-28T13:56:44.858Z,11.60
2022-10-28T13:59:28.257Z,6.38
2022-10-28T14:02:07.474Z,5.57
2022-10-28T14:04:43.852Z,8.07
2022-10-28T14:07:22.440Z,6.80
2022-10-28T14:09:58.414Z,4.47
2022-10-28T14:12:32.235Z,4.80
2022-10-28T14:15:16.861Z,5.22
2022-10-28T14:17:53.009Z,4.75
2022-10-28T14:20:29.686Z,4.15
2022-10-28T14:22:57.846Z,4.10
2022-10-28T14:26:01.166Z,4.93
2022-10-28T14:28:52.033Z,4.07
2022-10-28T14:31:43.606Z,4.78
2022-10-28T14:34:45.060Z,4.40
2022-10-28T14:37:49.147Z,4.65
2022-10-28T14:40:26.996Z,4.80
2022-10-28T14:43:08.500Z,5.40
2022-10-28T14:45:45.732Z,5.20
2022-10-28T14:48:39.047Z,4.15
2022-10-28T14:51:14.828Z,4.32
2022-10-28T14:53:44.482Z,4.20
2022-10-28T14:59:00.102Z,3.97
2022-10-28T15:01:38.775Z,4.53
2022-10-28T15:04:13.235Z,3.80
2022-10-28T15:06:43.770Z,4.53
2022-10-28T15:09:19.480Z,4.13
2022-10-28T15:11:50.788Z,3.72
2022-10-28T15:14:28.211Z,4.63
2022-10-28T15:16:56.117Z,4.75
2022-10-28T15:19:27.242Z,4.35
2022-10-28T15:22:16.581Z,4.80
2022-10-28T15:24:57.777Z,5.97
2022-10-28T15:27:27.518Z,4.50
2022-10-28T15:29:55.877Z,4.78
2022-10-28T15:32:32.032Z,4.40
2022-10-28T15:35:01.237Z,4.47
2022-10-28T15:37:31.651Z,4.10
2022-10-28T15:40:20.223Z,6.13
2022-10-28T15:42:53.580Z,4.22
2022-10-28T15:45:26.726Z,7.55
2022-10-28T15:47:56.303Z,4.32
2022-10-28T15:50:29.360Z,4.20
2022-10-28T15:53:22.260Z,4.28
2022-10-28T15:56:10.426Z,6.65
2022-10-28T15:58:50.112Z,5.63
2022-10-28T16:01:38.305Z,10.82
2022-10-28T16:04:07.217Z,6.00
2022-10-28T16:06:37.850Z,6.65
2022-10-28T16:09:13.788Z,7.70
2022-10-28T16:11:47.545Z,4.03
2022-10-28T16:14:29.516Z,4.90
2022-10-28T16:19:39.971Z,3.80
2022-10-28T16:22:12.988Z,5.95
2022-10-28T16:24:40.820Z,5.80
2022-10-28T16:27:18.000Z,4.10
2022-10-28T16:29:45.822Z,5.80
2022-10-28T16:32:14.996Z,5.05
2022-10-28T16:34:43.268Z,5.45
2022-10-28T16:37:22.811Z,4.90
2022-10-28T16:39:52.437Z,5.63
2022-10-28T16:42:20.896Z,4.88
2022-10-28T16:44:48.930Z,4.80
2022-10-28T16:47:18.319Z,6.28
2022-10-28T16:49:52.432Z,4.45
2022-10-28T16:52:27.276Z,4.10
2022-10-28T16:54:55.037Z,5.03
2022-10-28T16:59:52.175Z,4.10
2022-10-28T17:02:24.960Z,4.18
2022-10-28T17:04:52.940Z,5.55
2022-10-28T17:07:20.460Z,5.38
2022-10-28T17:09:49.459Z,4.35
2022-10-28T17:12:19.357Z,4.80
2022-10-28T17:14:47.071Z,4.25
2022-10-28T17:17:14.823Z,4.88
2022-10-28T17:19:45.488Z,4.82
2022-10-28T17:22:16.838Z,6.07
2022-10-28T17:24:44.505Z,5.38
2022-10-28T17:27:13.749Z,5.05
2022-10-28T17:29:41.467Z,5.55
2022-10-28T17:32:09.253Z,5.65
2022-10-28T17:34:37.175Z,5.30
2022-10-28T17:37:05.248Z,5.95
2022-10-28T17:39:32.865Z,6.22
2022-10-28T17:42:00.613Z,8.73
2022-10-28T17:44:29.665Z,8.48
2022-10-28T17:46:57.330Z,7.60
2022-10-28T17:49:25.023Z,8.02
2022-10-28T17:51:53.193Z,6.75
2022-10-28T17:54:21.035Z,8.18
2022-10-28T17:56:48.912Z,8.45
2022-10-28T17:59:16.874Z,9.43
2022-10-28T18:01:46.287Z,12.43
2022-10-28T18:04:15.073Z,10.05
2022-10-28T18:06:48.175Z,10.40
2022-10-28T18:09:16.049Z,9.57
2022-10-28T18:11:43.960Z,8.63
2022-10-28T18:14:11.956Z,8.63
2022-10-28T18:16:39.692Z,6.95
2022-10-28T18:19:10.238Z,7.97
2022-10-28T18:21:38.005Z,10.18
2022-10-28T18:24:07.893Z,9.95
2022-10-28T18:26:36.886Z,10.90
2022-10-28T18:29:09.903Z,11.23
2022-10-28T18:31:40.456Z,11.70
2022-10-28T18:34:09.569Z,10.70
2022-10-28T18:36:37.516Z,10.68
2022-10-28T18:39:09.580Z,12.10
2022-10-28T18:41:41.605Z,14.05
2022-10-28T18:44:14.064Z,16.90
2022-10-28T18:46:42.304Z,19.20
2022-10-28T18:49:11.379Z,19.65
2022-10-28T18:51:39.227Z,16.60
2022-10-28T18:54:07.093Z,15.57
2022-10-28T18:56:35.099Z,13.85
2022-10-28T18:59:05.146Z,12.05
2022-10-28T19:01:33.629Z,12.13
2022-10-28T19:04:03.012Z,10.30
2022-10-28T19:06:33.671Z,9.48
2022-10-28T19:09:03.346Z,9.68
2022-10-28T19:11:32.228Z,7.80
2022-10-28T19:14:01.693Z,7.40
2022-10-28T19:16:31.183Z,7.00
2022-10-28T19:19:00.590Z,6.45
2022-10-28T19:21:29.449Z,6.95
2022-10-28T19:23:59.062Z,5.93
2022-10-28T19:26:27.734Z,5.55
2022-10-28T19:28:55.600Z,5.80
2022-10-28T19:31:26.320Z,6.78
2022-10-28T19:33:55.003Z,6.07
2022-10-28T19:36:24.317Z,6.85
2022-10-28T19:38:53.707Z,5.97
2022-10-28T19:41:24.746Z,6.22
2022-10-28T19:43:57.905Z,6.38
2022-10-28T19:46:29.222Z,6.30
2022-10-28T19:48:58.381Z,6.80
2022-10-28T19:51:28.202Z,6.20
2022-10-28T19:53:57.709Z,6.57
2022-10-28T19:56:27.899Z,7.78
2022-10-28T19:58:57.847Z,6.82
2022-10-28T20:01:27.699Z,6.43
2022-10-28T20:03:56.629Z,6.28
2022-10-28T20:06:26.333Z,7.45
2022-10-28T20:08:54.327Z,6.53
2022-10-28T20:11:26.272Z,6.75
2022-10-28T20:13:57.633Z,6.70
2022-10-28T20:16:26.175Z,6.70
2022-10-28T20:18:55.935Z,6.35
2022-10-28T20:21:25.046Z,6.70
2022-10-28T20:23:55.128Z,7.07
2022-10-28T20:26:24.811Z,6.70
2022-10-28T20:28:52.623Z,6.72
2022-10-28T20:31:23.499Z,6.80
2022-10-28T20:33:52.663Z,6.75
2022-10-28T20:36:27.712Z,6.78
2022-10-28T20:38:56.151Z,7.22
2022-10-28T20:41:24.449Z,6.88
2022-10-28T20:43:53.546Z,7.07
2022-10-28T20:46:23.380Z,6.95
2022-10-28T20:48:53.982Z,7.78
2022-10-28T20:51:22.230Z,7.75
2022-10-28T20:53:50.027Z,7.97
2022-10-28T20:56:18.797Z,6.90
2022-10-28T20:58:46.874Z,7.65
2022-10-28T21:01:16.981Z,7.18
2022-10-28T21:03:46.987Z,8.05
2022-10-28T21:06:16.007Z,7.45
2022-10-28T21:08:43.995Z,7.13
2022-10-28T21:11:13.629Z,7.55
2022-10-28T21:13:41.648Z,7.40
2022-10-28T21:16:11.511Z,8.27
2022-10-28T21:18:40.338Z,8.05
2022-10-28T21:21:09.354Z,7.93
2022-10-28T21:23:36.982Z,7.05
2022-10-28T21:26:08.228Z,7.60
2022-10-28T21:28:35.944Z,8.55
2022-10-28T21:31:05.412Z,7.72
2022-10-28T21:33:34.291Z,8.23
2022-10-28T21:36:04.508Z,7.82
2022-10-28T21:38:33.579Z,7.90
2022-10-28T21:41:02.478Z,8.25
2022-10-28T21:43:31.981Z,8.13
2022-10-28T21:45:59.795Z,8.05
2022-10-28T21:48:28.376Z,8.48
2022-10-28T21:50:57.390Z,8.25
2022-10-28T21:53:26.160Z,7.60
2022-10-28T21:56:03.405Z,8.52
2022-10-28T21:58:31.162Z,7.97
2022-10-28T22:01:03.928Z,7.50
2022-10-28T22:03:31.648Z,7.70
2022-10-28T22:05:59.240Z,7.55
2022-10-28T22:08:27.108Z,7.22
2022-10-28T22:11:01.801Z,8.20
2022-10-28T22:13:29.471Z,7.72
2022-10-28T22:15:59.123Z,9.68
2022-10-28T22:18:27.505Z,7.60
2022-10-28T22:20:55.150Z,8.02
2022-10-28T22:23:23.095Z,7.25
2022-10-28T22:25:50.890Z,7.57
2022-10-28T22:28:20.122Z,7.10
2022-10-28T22:30:50.058Z,8.30
2022-10-28T22:33:17.733Z,7.93
2022-10-28T22:35:45.480Z,7.43
2022-10-28T22:38:13.051Z,6.80
2022-10-28T22:40:40.617Z,7.82
2022-10-28T22:43:08.268Z,7.70
2022-10-28T22:45:40.144Z,7.18
2022-10-28T22:48:08.009Z,7.68
2022-10-28T22:50:35.634Z,7.30
2022-10-28T22:53:03.481Z,6.78
2022-10-28T22:55:31.231Z,7.50
2022-10-28T22:57:59.112Z,7.80
2022-10-28T23:00:26.963Z,7.88
2022-10-28T23:02:57.384Z,8.02
2022-10-28T23:05:25.476Z,7.63
2022-10-28T23:07:54.247Z,8.10
2022-10-28T23:10:22.264Z,7.88
2022-10-28T23:12:56.245Z,8.50
2022-10-28T23:15:24.144Z,7.97
2022-10-28T23:17:52.450Z,6.93
2022-10-28T23:20:23.741Z,7.45
2022-10-28T23:22:51.603Z,8.07
2022-10-28T23:25:19.358Z,8.27
2022-10-28T23:27:47.062Z,7.63
2022-10-28T23:30:14.987Z,7.15
2022-10-28T23:32:42.757Z,7.03
2022-10-28T23:35:10.614Z,6.47
2022-10-28T23:37:40.796Z,7.22
2022-10-28T23:42:42.980Z,7.28
2022-10-28T23:45:11.153Z,8.18
2022-10-28T23:47:38.891Z,6.85
2022-10-28T23:50:06.960Z,7.47
2022-10-28T23:52:34.876Z,7.22
2022-10-28T23:55:04.283Z,6.53
2022-10-28T23:57:31.962Z,7.50
2022-10-28T23:59:59.739Z,7.40
